Time;durP1;ratioP1;P1;durP2;ratioP2;P2;SDS_P1;SDS_P2;PMS_P1;PMS_P2;Temp;Humidity;BMP_temperature;BMP_pressure;BME280_temperature;BME280_humidity;BME280_pressure;Samples;Min_cycle;Max_cycle;Signal;HPM_P1;HPM_P2
2022/09/07 00:04:39;;;;;;;1.58;0.45;;;;;;;;;;10499011;28;20089;-79
2022/09/07 00:09:42;;;;;;;1.75;0.65;;;;;;;;;;10489527;28;20063;-79
2022/09/07 00:14:47;;;;;;;2.53;0.55;;;;;;;;;;10499859;28;20120;-81
2022/09/07 00:19:50;;;;;;;0.47;0.40;;;;;;;;;;10515436;28;20124;-79
2022/09/07 00:24:53;;;;;;;2.95;0.50;;;;;;;;;;10527522;28;20076;-79
2022/09/07 00:29:58;;;;;;;1.08;0.50;;;;;;;;;;10507401;28;20063;-80
2022/09/07 00:35:01;;;;;;;1.33;0.28;;;;;;;;;;10520093;28;20608;-79
2022/09/07 00:40:05;;;;;;;0.90;0.32;;;;;;;;;;10513398;28;20036;-79
2022/09/07 00:45:15;;;;;;;1.20;0.35;;;;;;;;;;10530983;28;20043;-78
2022/09/07 00:50:25;;;;;;;0.73;0.40;;;;;;;;;;10512723;28;20115;-80
2022/09/07 00:55:30;;;;;;;2.55;0.47;;;;;;;;;;10512015;28;20039;-79
2022/09/07 01:00:35;;;;;;;0.45;0.43;;;;;;;;;;10530401;28;20039;-79
2022/09/07 01:05:43;;;;;;;1.23;0.52;;;;;;;;;;10488359;28;20035;-78
2022/09/07 01:10:46;;;;;;;0.60;0.40;;;;;;;;;;10515728;28;20132;-79
2022/09/07 01:16:01;;;;;;;1.75;0.40;;;;;;;;;;10512695;28;20097;-79
2022/09/07 01:21:23;;;;;;;0.67;0.40;;;;;;;;;;10500007;28;20127;-78
2022/09/07 01:27:07;;;;;;;0.75;0.60;;;;;;;;;;10520527;28;20052;-79
2022/09/07 01:32:18;;;;;;;1.90;0.50;;;;;;;;;;10468576;28;20066;-79
2022/09/07 01:37:29;;;;;;;0.90;0.40;;;;;;;;;;10456656;28;20151;-79
2022/09/07 01:42:36;;;;;;;0.40;0.40;;;;;;;;;;10487592;28;20127;-79
2022/09/07 01:47:44;;;;;;;0.50;0.38;;;;;;;;;;10478614;28;20043;-79
2022/09/07 01:52:53;;;;;;;1.20;0.35;;;;;;;;;;10506975;28;20177;-79
2022/09/07 01:58:01;;;;;;;1.77;0.55;;;;;;;;;;10513166;28;20060;-79
2022/09/07 02:03:13;;;;;;;0.70;0.45;;;;;;;;;;10538175;28;20047;-79
2022/09/07 02:08:21;;;;;;;0.50;0.43;;;;;;;;;;10512356;28;20126;-79
2022/09/07 02:13:30;;;;;;;1.55;0.38;;;;;;;;;;10528992;28;20119;-79
2022/09/07 02:18:40;;;;;;;0.95;0.47;;;;;;;;;;10502049;28;20105;-79
2022/09/07 02:23:48;;;;;;;0.90;0.50;;;;;;;;;;10486624;28;20157;-80
2022/09/07 02:28:51;;;;;;;3.47;0.50;;;;;;;;;;10505478;28;20047;-79
2022/09/07 02:33:56;;;;;;;2.88;1.02;;;;;;;;;;10501359;28;20206;-79
2022/09/07 02:39:00;;;;;;;1.25;0.43;;;;;;;;;;10489390;28;20098;-79
2022/09/07 02:44:07;;;;;;;3.42;0.60;;;;;;;;;;10502278;28;20036;-79
2022/09/07 02:49:25;;;;;;;0.98;0.47;;;;;;;;;;10506887;28;20122;-79
2022/09/07 02:54:43;;;;;;;1.20;0.50;;;;;;;;;;10492574;28;20036;-79
2022/09/07 02:59:59;;;;;;;0.70;0.50;;;;;;;;;;10490409;28;20064;-79
2022/09/07 03:05:10;;;;;;;1.50;0.60;;;;;;;;;;10521627;28;20123;-79
2022/09/07 03:10:15;;;;;;;0.50;0.38;;;;;;;;;;10486526;28;20056;-80
2022/09/07 03:15:22;;;;;;;0.47;0.40;;;;;;;;;;10483619;28;20477;-79
2022/09/07 03:20:26;;;;;;;1.83;0.50;;;;;;;;;;10516756;28;20558;-79
2022/09/07 03:25:30;;;;;;;1.23;0.40;;;;;;;;;;10500712;28;20082;-78
2022/09/07 03:30:33;;;;;;;1.13;0.47;;;;;;;;;;10525491;28;20072;-81
2022/09/07 03:35:38;;;;;;;1.70;0.60;;;;;;;;;;10501802;28;20148;-80
2022/09/07 03:40:41;;;;;;;1.65;0.70;;;;;;;;;;10491507;28;20044;-79
2022/09/07 03:45:44;;;;;;;0.70;0.50;;;;;;;;;;10515443;28;20122;-80
2022/09/07 03:50:57;;;;;;;0.50;0.40;;;;;;;;;;10513527;28;20105;-79
2022/09/07 03:56:02;;;;;;;0.95;0.43;;;;;;;;;;10511942;28;20050;-78
2022/09/07 04:01:08;;;;;;;0.63;0.40;;;;;;;;;;10507262;28;20102;-80
2022/09/07 04:06:13;;;;;;;1.00;0.57;;;;;;;;;;10485267;28;20123;-79
2022/09/07 04:11:18;;;;;;;1.85;0.70;;;;;;;;;;10514627;28;20074;-79
2022/09/07 04:16:23;;;;;;;0.40;0.30;;;;;;;;;;10507778;28;20123;-79
2022/09/07 04:21:30;;;;;;;1.02;0.40;;;;;;;;;;10516865;28;20062;-79
2022/09/07 04:26:35;;;;;;;0.55;0.45;;;;;;;;;;10507501;28;20152;-79
2022/09/07 04:31:39;;;;;;;0.40;0.30;;;;;;;;;;10515742;28;20054;-80
2022/09/07 04:36:44;;;;;;;0.75;0.50;;;;;;;;;;10507138;28;20060;-79
2022/09/07 04:41:47;;;;;;;0.47;0.47;;;;;;;;;;10514967;28;20488;-80
2022/09/07 04:46:51;;;;;;;0.63;0.60;;;;;;;;;;10518694;28;20041;-80
2022/09/07 04:51:55;;;;;;;1.30;0.70;;;;;;;;;;10528739;28;20036;-79
2022/09/07 04:56:58;;;;;;;0.57;0.57;;;;;;;;;;10531190;28;20036;-80
2022/09/07 05:02:03;;;;;;;2.25;0.45;;;;;;;;;;10516253;28;20059;-79
2022/09/07 05:07:08;;;;;;;0.90;0.50;;;;;;;;;;10517246;28;20051;-80
2022/09/07 05:12:11;;;;;;;0.70;0.60;;;;;;;;;;10512605;28;20056;-79
2022/09/07 05:17:14;;;;;;;1.20;0.47;;;;;;;;;;10503485;28;20074;-80
2022/09/07 05:22:19;;;;;;;0.45;0.40;;;;;;;;;;10504017;28;20071;-79
2022/09/07 05:27:23;;;;;;;0.68;0.45;;;;;;;;;;10537052;28;20097;-80
2022/09/07 05:32:26;;;;;;;0.38;0.38;;;;;;;;;;10537587;28;20131;-80
2022/09/07 05:37:31;;;;;;;0.38;0.32;;;;;;;;;;10528907;28;20064;-79
2022/09/07 05:42:36;;;;;;;0.52;0.52;;;;;;;;;;10510112;28;20113;-80
2022/09/07 05:47:39;;;;;;;0.50;0.50;;;;;;;;;;10500562;28;20067;-80
2022/09/07 05:52:44;;;;;;;0.90;0.43;;;;;;;;;;10506932;28;20056;-79
2022/09/07 05:57:48;;;;;;;1.77;0.70;;;;;;;;;;10502473;28;20135;-80
2022/09/07 06:02:51;;;;;;;0.47;0.40;;;;;;;;;;10534312;28;20101;-80
2022/09/07 06:07:56;;;;;;;0.35;0.32;;;;;;;;;;10497174;28;20037;-79
2022/09/07 06:12:59;;;;;;;1.42;0.60;;;;;;;;;;10522476;28;20052;-79
2022/09/07 06:18:02;;;;;;;0.63;0.38;;;;;;;;;;10503565;28;20036;-79
2022/09/07 06:23:07;;;;;;;2.40;0.50;;;;;;;;;;10521403;28;20083;-79
2022/09/07 06:28:10;;;;;;;0.40;0.40;;;;;;;;;;10514162;28;20064;-79
2022/09/07 06:33:13;;;;;;;1.33;0.43;;;;;;;;;;10523410;28;20036;-79
2022/09/07 06:38:19;;;;;;;0.50;0.43;;;;;;;;;;10535810;28;20097;-80
2022/09/07 06:43:22;;;;;;;0.38;0.38;;;;;;;;;;10492874;28;20043;-80
2022/09/07 06:48:25;;;;;;;1.15;0.50;;;;;;;;;;10513680;28;20071;-79
2022/09/07 06:53:33;;;;;;;2.28;0.70;;;;;;;;;;10542137;28;20064;-79
2022/09/07 06:58:37;;;;;;;1.67;0.45;;;;;;;;;;10524562;28;20048;-81
2022/09/07 07:03:45;;;;;;;0.82;0.45;;;;;;;;;;10528125;28;20044;-80
2022/09/07 07:08:53;;;;;;;0.57;0.57;;;;;;;;;;10536449;28;20392;-80
2022/09/07 07:13:58;;;;;;;0.50;0.45;;;;;;;;;;10508817;28;20107;-80
2022/09/07 07:19:02;;;;;;;2.03;0.70;;;;;;;;;;10514488;28;20112;-80
2022/09/07 07:24:07;;;;;;;0.80;0.32;;;;;;;;;;10540297;28;20071;-80
2022/09/07 07:29:10;;;;;;;0.60;0.40;;;;;;;;;;10513517;28;20039;-79
2022/09/07 07:34:15;;;;;;;1.95;0.40;;;;;;;;;;10511462;28;20044;-79
2022/09/07 07:39:19;;;;;;;0.57;0.50;;;;;;;;;;10510346;28;20066;-79
2022/09/07 07:44:43;;;;;;;1.63;0.63;;;;;;;;;;10511219;28;20076;-80
2022/09/07 07:49:46;;;;;;;2.22;0.65;;;;;;;;;;10535281;28;20083;-81
2022/09/07 07:54:51;;;;;;;1.50;0.40;;;;;;;;;;10507954;28;20044;-79
2022/09/07 07:59:54;;;;;;;0.70;0.45;;;;;;;;;;10524938;28;20048;-79
2022/09/07 08:04:57;;;;;;;1.80;0.60;;;;;;;;;;10514793;28;20550;-79
2022/09/07 08:10:02;;;;;;;2.65;0.50;;;;;;;;;;10532519;28;20043;-79
2022/09/07 08:15:06;;;;;;;2.95;0.70;;;;;;;;;;10490858;28;20040;-79
2022/09/07 08:20:10;;;;;;;1.90;1.00;;;;;;;;;;10497680;28;20032;-79
2022/09/07 08:25:16;;;;;;;3.78;1.10;;;;;;;;;;10490175;28;20503;-78
2022/09/07 08:30:19;;;;;;;3.15;1.10;;;;;;;;;;10513625;28;20042;-79
2022/09/07 08:35:22;;;;;;;3.35;0.95;;;;;;;;;;10523486;28;20058;-79
2022/09/07 08:40:27;;;;;;;3.42;1.10;;;;;;;;;;10524309;28;20408;-78
2022/09/07 08:45:35;;;;;;;1.38;0.80;;;;;;;;;;10504771;28;20036;-78
2022/09/07 08:50:45;;;;;;;3.17;1.27;;;;;;;;;;10488470;28;20551;-79
2022/09/07 08:55:54;;;;;;;0.77;0.70;;;;;;;;;;10524268;28;20047;-79
2022/09/07 09:00:58;;;;;;;2.03;0.98;;;;;;;;;;10521899;28;20702;-79
2022/09/07 09:06:26;;;;;;;1.35;0.80;;;;;;;;;;10495761;28;20035;-78
2022/09/07 09:11:42;;;;;;;0.98;0.60;;;;;;;;;;10511962;28;20040;-78
2022/09/07 09:16:49;;;;;;;3.05;1.17;;;;;;;;;;10482344;28;20712;-80
2022/09/07 09:22:07;;;;;;;3.75;0.90;;;;;;;;;;10509598;28;20040;-79
2022/09/07 09:27:12;;;;;;;1.25;0.60;;;;;;;;;;10495107;28;20036;-79
2022/09/07 09:32:33;;;;;;;2.42;1.00;;;;;;;;;;10509362;28;20111;-79
2022/09/07 09:37:37;;;;;;;3.10;1.05;;;;;;;;;;10513527;28;20040;-80
2022/09/07 09:42:42;;;;;;;2.40;1.20;;;;;;;;;;10521281;28;20047;-78
2022/09/07 09:47:50;;;;;;;2.33;1.35;;;;;;;;;;10511869;28;20054;-79
2022/09/07 09:52:54;;;;;;;1.92;1.20;;;;;;;;;;10521418;28;20114;-78
2022/09/07 09:58:00;;;;;;;2.28;1.30;;;;;;;;;;10511338;28;20060;-78
2022/09/07 10:03:26;;;;;;;1.95;1.30;;;;;;;;;;10512131;28;20600;-78
2022/09/07 10:08:54;;;;;;;;;;;;;;;;;;10508580;28;20489;-78
2022/09/07 10:13:59;;;;;;;4.07;1.27;;;;;;;;;;10517150;28;20341;-79
2022/09/07 10:19:02;;;;;;;15.13;2.78;;;;;;;;;;10510761;28;20032;-79
2022/09/07 10:24:15;;;;;;;3.15;1.40;;;;;;;;;;10520257;28;20052;-79
2022/09/07 10:29:27;;;;;;;1.90;1.65;;;;;;;;;;10520289;28;20043;-79
2022/09/07 10:34:39;;;;;;;1.92;1.23;;;;;;;;;;10518722;28;20043;-78
2022/09/07 10:39:49;;;;;;;2.63;1.90;;;;;;;;;;10527998;28;20051;-78
2022/09/07 10:45:03;;;;;;;3.38;1.73;;;;;;;;;;10499294;28;20519;-78
2022/09/07 10:50:12;;;;;;;1.75;1.27;;;;;;;;;;10506059;28;20044;-79
2022/09/07 10:55:33;;;;;;;1.45;1.25;;;;;;;;;;10536650;28;20041;-79
2022/09/07 11:00:41;;;;;;;;;;;;;;;;;;10528111;28;20044;-78
2022/09/07 11:05:58;;;;;;;2.15;1.00;;;;;;;;;;10528792;28;20117;-79
2022/09/07 11:11:08;;;;;;;2.05;1.20;;;;;;;;;;10517131;28;20044;-78
2022/09/07 11:16:22;;;;;;;5.38;1.38;;;;;;;;;;10527991;28;20033;-78
2022/09/07 11:21:54;;;;;;;2.50;1.30;;;;;;;;;;10512639;28;20102;-78
2022/09/07 11:27:03;;;;;;;1.63;1.20;;;;;;;;;;10491497;28;20522;-78
2022/09/07 11:32:13;;;;;;;1.88;0.90;;;;;;;;;;10526062;28;20044;-78
2022/09/07 11:37:20;;;;;;;3.60;1.50;;;;;;;;;;10534373;28;20044;-78
2022/09/07 11:42:30;;;;;;;1.88;1.33;;;;;;;;;;10509114;28;20040;-78
2022/09/07 11:47:55;;;;;;;3.13;0.70;;;;;;;;;;10495677;28;20040;-79
2022/09/07 11:53:04;;;;;;;1.88;0.98;;;;;;;;;;10534727;28;20047;-79
2022/09/07 11:58:33;;;;;;;3.83;1.42;;;;;;;;;;10516232;28;20040;-79
2022/09/07 12:04:08;;;;;;;2.17;1.05;;;;;;;;;;10508866;28;20454;-79
2022/09/07 12:09:30;;;;;;;1.67;1.00;;;;;;;;;;10527367;28;20033;-78
2022/09/07 12:14:46;;;;;;;2.63;1.13;;;;;;;;;;10498290;28;20043;-78
2022/09/07 12:20:16;;;;;;;1.83;0.95;;;;;;;;;;10515588;28;20055;-78
2022/09/07 12:25:19;;;;;;;1.13;0.73;;;;;;;;;;10532378;28;20044;-78
2022/09/07 12:30:54;;;;;;;2.92;1.30;;;;;;;;;;10532112;28;20388;-79
2022/09/07 12:36:00;;;;;;;2.10;1.00;;;;;;;;;;10478220;28;20048;-78
2022/09/07 12:41:20;;;;;;;1.77;1.00;;;;;;;;;;10531105;28;20047;-78
2022/09/07 12:46:45;;;;;;;2.00;0.95;;;;;;;;;;10530709;28;20496;-80
2022/09/07 12:51:57;;;;;;;2.00;1.02;;;;;;;;;;10518353;28;20044;-78
2022/09/07 12:57:16;;;;;;;1.05;0.40;;;;;;;;;;10508994;28;20558;-78
2022/09/07 13:03:14;;;;;;;2.55;1.30;;;;;;;;;;10504470;28;20039;-80
2022/09/07 13:09:04;;;;;;;3.63;0.70;;;;;;;;;;10485347;28;20089;-79
2022/09/07 13:14:19;;;;;;;1.38;0.75;;;;;;;;;;10517655;28;20036;-78
2022/09/07 13:19:56;;;;;;;1.45;0.60;;;;;;;;;;10528131;28;20531;-79
2022/09/07 13:25:02;;;;;;;1.77;0.85;;;;;;;;;;10520013;28;20048;-78
2022/09/07 13:30:43;;;;;;;1.15;1.05;;;;;;;;;;10517243;28;20049;-78
2022/09/07 13:35:49;;;;;;;0.93;0.60;;;;;;;;;;10496925;28;20043;-79
2022/09/07 13:40:57;;;;;;;1.67;0.80;;;;;;;;;;10512546;28;20044;-79
2022/09/07 13:46:03;;;;;;;2.38;0.80;;;;;;;;;;10521833;28;20283;-78
2022/09/07 13:51:12;;;;;;;0.75;0.60;;;;;;;;;;10520175;28;20044;-78
2022/09/07 13:56:24;;;;;;;0.73;0.60;;;;;;;;;;10521673;28;20043;-79
2022/09/07 14:01:28;;;;;;;1.05;0.50;;;;;;;;;;10538018;28;20423;-78
2022/09/07 14:06:33;;;;;;;0.80;0.57;;;;;;;;;;10537855;28;20028;-78
2022/09/07 14:11:40;;;;;;;;;;;;;;;;;;10519476;28;20043;-79
2022/09/07 14:16:47;;;;;;;0.93;0.70;;;;;;;;;;10529130;28;19927;-79
2022/09/07 14:21:55;;;;;;;1.05;0.63;;;;;;;;;;10528618;28;20131;-78
2022/09/07 14:27:00;;;;;;;2.72;0.60;;;;;;;;;;10536917;28;20038;-78
2022/09/07 14:32:06;;;;;;;2.78;0.90;;;;;;;;;;10509751;28;20047;-79
2022/09/07 14:37:14;;;;;;;1.52;0.70;;;;;;;;;;10536444;28;20068;-78
2022/09/07 14:42:23;;;;;;;0.77;0.47;;;;;;;;;;10527198;28;20102;-78
2022/09/07 14:47:28;;;;;;;2.55;0.50;;;;;;;;;;10519352;28;20044;-79
2022/09/07 14:52:34;;;;;;;;;;;;;;;;;;10527748;28;20042;-78
2022/09/07 14:57:41;;;;;;;0.25;0.25;;;;;;;;;;10493326;28;20138;-78
2022/09/07 15:02:44;;;;;;;0.13;0.10;;;;;;;;;;10508959;28;20446;-78
2022/09/07 15:07:49;;;;;;;0.40;0.20;;;;;;;;;;10525283;28;20047;-78
2022/09/07 15:12:55;;;;;;;0.90;0.50;;;;;;;;;;10527813;28;20040;-78
2022/09/07 15:18:00;;;;;;;1.75;0.50;;;;;;;;;;10529785;28;20427;-79
2022/09/07 15:23:09;;;;;;;1.20;0.52;;;;;;;;;;10530529;28;20527;-78
2022/09/07 15:28:23;;;;;;;1.10;0.40;;;;;;;;;;10508980;28;20041;-78
2022/09/07 15:33:47;;;;;;;0.98;0.40;;;;;;;;;;10497655;28;20675;-78
2022/09/07 15:38:50;;;;;;;0.55;0.30;;;;;;;;;;10525686;28;20060;-78
2022/09/07 15:44:10;;;;;;;0.70;0.40;;;;;;;;;;10509718;28;20040;-78
2022/09/07 15:49:14;;;;;;;1.07;0.50;;;;;;;;;;10526280;28;20058;-78
2022/09/07 15:54:18;;;;;;;0.40;0.30;;;;;;;;;;10535360;28;20122;-78
2022/09/07 15:59:24;;;;;;;0.52;0.32;;;;;;;;;;10500422;28;20417;-77
2022/09/07 16:04:27;;;;;;;1.30;0.50;;;;;;;;;;10532253;28;20040;-77
2022/09/07 16:09:30;;;;;;;0.63;0.32;;;;;;;;;;10518006;28;20105;-78
2022/09/07 16:14:35;;;;;;;1.17;0.43;;;;;;;;;;10526519;28;20040;-79
2022/09/07 16:19:38;;;;;;;1.50;0.40;;;;;;;;;;10523539;28;20040;-79
2022/09/07 16:24:42;;;;;;;0.55;0.38;;;;;;;;;;10539676;28;20139;-79
2022/09/07 16:29:47;;;;;;;1.13;0.50;;;;;;;;;;10538275;28;20055;-79
2022/09/07 16:34:51;;;;;;;1.03;0.50;;;;;;;;;;10520378;28;20051;-79
2022/09/07 16:39:55;;;;;;;1.65;0.90;;;;;;;;;;10521972;28;20043;-79
2022/09/07 16:44:59;;;;;;;1.52;0.70;;;;;;;;;;10522307;28;20110;-79
2022/09/07 16:50:23;;;;;;;0.87;0.40;;;;;;;;;;10537575;28;20051;-79
2022/09/07 16:55:26;;;;;;;0.73;0.22;;;;;;;;;;10520715;28;20051;-78
2022/09/07 17:00:31;;;;;;;0.32;0.32;;;;;;;;;;10538406;28;20044;-79
2022/09/07 17:05:39;;;;;;;0.25;0.25;;;;;;;;;;10537413;28;20044;-79
2022/09/07 17:10:42;;;;;;;0.93;0.25;;;;;;;;;;10537633;28;20055;-79
2022/09/07 17:15:47;;;;;;;0.65;0.30;;;;;;;;;;10527966;28;20044;-79
2022/09/07 17:20:55;;;;;;;0.30;0.28;;;;;;;;;;10504233;28;20051;-79
2022/09/07 17:26:04;;;;;;;0.40;0.40;;;;;;;;;;10506974;28;20516;-79
2022/09/07 17:31:10;;;;;;;0.35;0.20;;;;;;;;;;10531793;28;20554;-79
2022/09/07 17:36:34;;;;;;;0.38;0.22;;;;;;;;;;10536772;28;20044;-79
2022/09/07 17:41:40;;;;;;;0.40;0.38;;;;;;;;;;10519048;28;20043;-79
2022/09/07 17:46:45;;;;;;;0.52;0.30;;;;;;;;;;10528700;28;20055;-79
2022/09/07 17:51:48;;;;;;;0.20;0.20;;;;;;;;;;10534798;28;20051;-78
2022/09/07 17:56:51;;;;;;;0.80;0.20;;;;;;;;;;10535291;28;20663;-79
2022/09/07 18:01:56;;;;;;;0.30;0.20;;;;;;;;;;10531823;28;20450;-79
2022/09/07 18:06:59;;;;;;;2.15;0.28;;;;;;;;;;10529404;28;20044;-79
2022/09/07 18:12:03;;;;;;;0.57;0.30;;;;;;;;;;10534485;28;20040;-78
2022/09/07 18:17:08;;;;;;;0.40;0.20;;;;;;;;;;10491089;28;20044;-79
2022/09/07 18:22:11;;;;;;;0.40;0.20;;;;;;;;;;10499302;28;20044;-79
2022/09/07 18:27:14;;;;;;;0.30;0.25;;;;;;;;;;10533423;28;20056;-79
2022/09/07 18:32:19;;;;;;;0.77;0.32;;;;;;;;;;10525623;28;20051;-79
2022/09/07 18:37:22;;;;;;;0.75;0.25;;;;;;;;;;10535491;28;20048;-79
2022/09/07 18:42:25;;;;;;;0.93;0.65;;;;;;;;;;10523195;28;20044;-78
2022/09/07 18:47:30;;;;;;;2.53;0.52;;;;;;;;;;10527217;28;20089;-78
2022/09/07 18:52:33;;;;;;;1.45;0.60;;;;;;;;;;10542244;28;20040;-79
2022/09/07 18:57:56;;;;;;;0.95;0.40;;;;;;;;;;10541676;28;20040;-79
2022/09/07 19:03:01;;;;;;;0.85;0.40;;;;;;;;;;10523908;28;20048;-79
2022/09/07 19:08:05;;;;;;;2.03;0.77;;;;;;;;;;10540517;28;20055;-79
2022/09/07 19:13:08;;;;;;;2.10;0.60;;;;;;;;;;10519792;28;20041;-79
2022/09/07 19:18:12;;;;;;;1.95;0.68;;;;;;;;;;10537838;28;20036;-78
2022/09/07 19:23:16;;;;;;;2.35;0.60;;;;;;;;;;10523554;28;20052;-79
2022/09/07 19:28:20;;;;;;;0.52;0.40;;;;;;;;;;10539993;28;20039;-79
2022/09/07 19:33:25;;;;;;;1.05;0.50;;;;;;;;;;10540908;28;20042;-79
2022/09/07 19:38:28;;;;;;;0.60;0.43;;;;;;;;;;10520687;28;20040;-79
2022/09/07 19:43:33;;;;;;;0.98;0.40;;;;;;;;;;10532179;28;20051;-79
2022/09/07 19:48:38;;;;;;;0.32;0.28;;;;;;;;;;10523019;28;20040;-79
2022/09/07 19:53:42;;;;;;;0.28;0.28;;;;;;;;;;10538583;28;20040;-79
2022/09/07 19:58:47;;;;;;;0.80;0.30;;;;;;;;;;10538609;28;20044;-79
2022/09/07 20:03:56;;;;;;;0.50;0.40;;;;;;;;;;10520891;28;20051;-79
2022/09/07 20:09:01;;;;;;;0.40;0.30;;;;;;;;;;10531052;28;20048;-79
2022/09/07 20:14:04;;;;;;;2.13;0.32;;;;;;;;;;10519284;28;20044;-79
2022/09/07 20:19:10;;;;;;;0.98;0.40;;;;;;;;;;10534075;28;20081;-79
2022/09/07 20:24:20;;;;;;;0.50;0.32;;;;;;;;;;10537208;28;20051;-78
2022/09/07 20:29:24;;;;;;;0.73;0.38;;;;;;;;;;10536004;28;20070;-78
2022/09/07 20:34:32;;;;;;;1.20;0.40;;;;;;;;;;10536933;28;20040;-79
2022/09/07 20:39:35;;;;;;;1.02;0.45;;;;;;;;;;10527591;28;20074;-78
2022/09/07 20:44:41;;;;;;;3.25;0.50;;;;;;;;;;10510064;28;20043;-80
2022/09/07 20:49:45;;;;;;;0.50;0.40;;;;;;;;;;10536147;28;20389;-79
2022/09/07 20:54:49;;;;;;;0.60;0.30;;;;;;;;;;10536409;28;20492;-79
2022/09/07 20:59:53;;;;;;;1.20;0.40;;;;;;;;;;10538953;28;20109;-79
2022/09/07 21:04:57;;;;;;;0.63;0.50;;;;;;;;;;10538835;28;20048;-79
2022/09/07 21:10:00;;;;;;;0.40;0.30;;;;;;;;;;10538470;28;20047;-79
2022/09/07 21:15:07;;;;;;;0.40;0.40;;;;;;;;;;10513056;28;20063;-78
2022/09/07 21:20:12;;;;;;;0.57;0.35;;;;;;;;;;10538295;28;20036;-79
2022/09/07 21:25:15;;;;;;;0.70;0.70;;;;;;;;;;10530514;28;20065;-79
2022/09/07 21:30:19;;;;;;;1.17;0.50;;;;;;;;;;10537451;28;20131;-79
2022/09/07 21:35:23;;;;;;;1.55;0.50;;;;;;;;;;10519394;28;20048;-79
2022/09/07 21:40:26;;;;;;;0.47;0.40;;;;;;;;;;10536429;28;20043;-79
2022/09/07 21:45:31;;;;;;;0.40;0.40;;;;;;;;;;10528507;28;20040;-79
2022/09/07 21:50:36;;;;;;;0.77;0.40;;;;;;;;;;10535538;28;20040;-79
2022/09/07 21:55:39;;;;;;;0.57;0.50;;;;;;;;;;10521116;28;20048;-79
2022/09/07 22:00:42;;;;;;;0.57;0.40;;;;;;;;;;10527450;28;20044;-79
2022/09/07 22:05:47;;;;;;;1.15;0.50;;;;;;;;;;10535563;28;20508;-80
2022/09/07 22:10:50;;;;;;;2.80;0.28;;;;;;;;;;10542668;28;20040;-79
2022/09/07 22:15:53;;;;;;;0.60;0.30;;;;;;;;;;10527394;28;20048;-79
2022/09/07 22:21:06;;;;;;;0.52;0.32;;;;;;;;;;10524361;28;20044;-79
2022/09/07 22:26:10;;;;;;;0.80;0.38;;;;;;;;;;10542713;28;20695;-79
2022/09/07 22:31:15;;;;;;;0.73;0.45;;;;;;;;;;10542138;28;20040;-79
2022/09/07 22:36:22;;;;;;;0.88;0.55;;;;;;;;;;10542419;28;20506;-79
2022/09/07 22:41:27;;;;;;;0.30;0.28;;;;;;;;;;10541915;28;20040;-79
2022/09/07 22:46:34;;;;;;;1.05;0.50;;;;;;;;;;10506747;28;20522;-79
2022/09/07 22:51:39;;;;;;;1.77;0.55;;;;;;;;;;10526416;28;20047;-79
2022/09/07 22:56:42;;;;;;;1.05;0.50;;;;;;;;;;10541530;28;20044;-79
2022/09/07 23:01:46;;;;;;;1.48;0.47;;;;;;;;;;10514471;28;20044;-79
2022/09/07 23:06:50;;;;;;;0.38;0.38;;;;;;;;;;10523326;28;20047;-79
2022/09/07 23:11:54;;;;;;;0.63;0.30;;;;;;;;;;10537499;28;20683;-79
2022/09/07 23:16:57;;;;;;;0.55;0.35;;;;;;;;;;10510806;28;20043;-79
2022/09/07 23:22:01;;;;;;;0.63;0.47;;;;;;;;;;10534183;28;20044;-79
2022/09/07 23:27:05;;;;;;;0.50;0.30;;;;;;;;;;10525345;28;20051;-79
2022/09/07 23:32:08;;;;;;;0.90;0.50;;;;;;;;;;10516514;28;20039;-79
2022/09/07 23:37:13;;;;;;;0.60;0.35;;;;;;;;;;10542361;28;20044;-79
2022/09/07 23:42:16;;;;;;;0.63;0.43;;;;;;;;;;10522591;28;20051;-79
2022/09/07 23:47:19;;;;;;;0.50;0.30;;;;;;;;;;10533653;28;20043;-79
2022/09/07 23:52:24;;;;;;;3.20;0.52;;;;;;;;;;10541960;28;20055;-79
2022/09/07 23:57:27;;;;;;;1.00;0.30;;;;;;;;;;10533999;28;20047;-79
